首页
METAR-TAF:

METAR-TAF

机场 :

Army Air Corps Middle Wallop

Middle Wallop, 英格兰

纬度: 51-09N, 经度: 001-34W, 海拔: 91米

当前天气观测

该预报发布于39分钟前的23:50 UTC
风速8节,风向东北
温度 17°C
湿度 94%
气压 1023 hPa
能見度: 6000

METAR: EGVP 252350Z AUTO 05008KT 6000 // OVC004/// 17/16 Q1023

时间: 01:29 (00:29 UTC)

预报

该预报发布于3小时和39分钟前的20:50 UTC
预报有效从25日的 20点(UTC)到 26日的 01点(UTC)
风速6节,风向东北
能见度10公里或以上
少量云层高于2000英尺
散云层高于3000英尺
短暂存在
从 25日的 20点(UTC)到 26日的 01点(UTC)
能見度: 6000
多云层高于700英尺
几率 40% :
短暂存在
从 25日的 20点(UTC)到 26日的 01点(UTC)
散云层高于600英尺

TAF: EGVP 252050Z 2520/2601 04006KT 9999 FEW020 SCT030 TEMPO 2520/2601 6000 HZ BKN007 PROB40 TEMPO 2520/2601 SCT006

超过4000个机场的气象观测和天气预报(METAR&TAF报告)。

可查询的气象台以黄色和红色小点在地图上表示。

将鼠标移到小点上方,可查看气象台名称。

然后点击查看天气观测和预报。

如需切换地图:点击带黑十字的绿色按钮放大地图;点击带横线的绿色按钮缩小地图;或者点击绿色箭头查看邻近地区的地图。


METAR-TAF: